Terminal Aerodrome Forecast
Issued by NWS

Home | Current Version | Previous Version | Text Only | Print | Product List | Glossary Off
Versions: 1 2 3 4 5 6 7 8 9 10 11 12 13 14 15 16 17 18 19 20 21 22 23 24 25 26 27 28 29 30 31 32 33 34
000 FTUS41 KBOX 211120 TAFHYA TAF KHYA 211120Z 2112/2212 19015KT 1SM BR OVC003 FM211300 19015KT 2SM -SHRA BR BKN003 FM211700 23014KT 2SM BR BKN008 FM211900 23013KT 5SM BR SCT015 FM220000 27008KT P6SM SCT040 FM220400 26006KT P6SM FEW250 FM221100 22007KT P6SM SKC=

USA.gov is the U.S. government's official web portal to all federal, state and local government web resources and services.